createdAt,value
2018-04-15T00:01:25.829Z,0.00
2018-04-15T00:02:57.642Z,0.00
2018-04-15T00:04:29.456Z,0.00
2018-04-15T00:06:01.270Z,0.00
2018-04-15T00:07:33.085Z,0.00
2018-04-15T00:09:04.899Z,0.00
2018-04-15T00:10:36.713Z,0.00
2018-04-15T00:12:08.528Z,0.00
2018-04-15T00:13:40.342Z,0.00
2018-04-15T00:15:12.156Z,0.00
2018-04-15T00:16:43.974Z,0.00
2018-04-15T00:18:15.884Z,0.00
2018-04-15T00:19:47.599Z,0.00
2018-04-15T00:21:19.417Z,0.00
2018-04-15T00:22:51.227Z,0.00
2018-04-15T00:24:23.142Z,0.00
2018-04-15T00:25:54.856Z,0.00
2018-04-15T00:27:26.671Z,0.00
2018-04-15T00:28:58.489Z,0.00
2018-04-15T00:30:30.299Z,0.00
2018-04-15T00:32:02.114Z,0.00
2018-04-15T00:33:33.933Z,0.00
2018-04-15T00:35:05.748Z,0.00
2018-04-15T00:36:37.658Z,0.00
2018-04-15T00:38:09.371Z,0.00
2018-04-15T00:39:41.185Z,0.00
2018-04-15T00:41:13.000Z,0.00
2018-04-15T00:42:44.814Z,0.00
2018-04-15T00:44:16.628Z,0.00
2018-04-15T00:45:48.444Z,0.00
2018-04-15T00:47:20.255Z,0.00
2018-04-15T00:48:52.071Z,0.00
2018-04-15T00:50:23.889Z,0.00
2018-04-15T00:51:55.700Z,0.00
2018-04-15T00:53:27.514Z,0.00
2018-04-15T00:54:59.529Z,0.00
2018-04-15T00:56:31.143Z,0.00
2018-04-15T00:58:02.958Z,0.00
2018-04-15T00:59:34.773Z,0.00
2018-04-15T01:01:06.588Z,0.00
2018-04-15T01:02:38.403Z,0.00
2018-04-15T01:04:10.220Z,0.00
2018-04-15T01:05:42.032Z,0.00
2018-04-15T01:07:13.846Z,0.00
2018-04-15T01:08:45.665Z,0.00
2018-04-15T01:10:17.474Z,0.00
2018-04-15T01:11:49.305Z,0.00
2018-04-15T01:13:21.207Z,0.00
2018-04-15T01:14:52.918Z,0.00
2018-04-15T01:16:24.732Z,0.00
2018-04-15T01:17:56.549Z,0.00
2018-04-15T01:19:28.362Z,0.00
2018-04-15T01:21:00.177Z,0.00
2018-04-15T01:22:31.992Z,0.00
2018-04-15T01:24:03.807Z,0.00
2018-04-15T01:25:35.622Z,0.00
2018-04-15T01:27:07.439Z,0.00
2018-04-15T01:28:39.251Z,0.00
2018-04-15T01:30:11.067Z,0.00
2018-04-15T01:31:42.982Z,0.00
2018-04-15T01:33:14.697Z,0.00
2018-04-15T01:34:46.513Z,0.00
2018-04-15T01:36:18.331Z,0.00
2018-04-15T01:37:50.144Z,0.00
2018-04-15T01:39:21.958Z,0.00
2018-04-15T01:40:53.773Z,0.00
2018-04-15T01:42:25.589Z,0.00
2018-04-15T01:43:57.654Z,0.00
2018-04-15T01:45:29.219Z,0.00
2018-04-15T01:47:01.236Z,0.00
2018-04-15T01:48:32.849Z,0.00
2018-04-15T01:50:05.533Z,0.00
2018-04-15T01:51:36.481Z,0.00
2018-04-15T01:53:08.295Z,0.00
2018-04-15T01:54:40.110Z,0.00
2018-04-15T01:56:12.024Z,0.00
2018-04-15T01:57:43.777Z,0.00
2018-04-15T01:59:15.554Z,0.00
2018-04-15T02:00:47.369Z,0.00
2018-04-15T02:02:19.191Z,0.00
2018-04-15T02:03:50.999Z,0.00
2018-04-15T02:05:22.815Z,0.00
2018-04-15T02:06:54.630Z,0.00
2018-04-15T02:08:26.701Z,0.00
2018-04-15T02:09:58.261Z,0.00
2018-04-15T02:11:30.076Z,0.00
2018-04-15T02:13:01.892Z,0.00
2018-04-15T02:14:33.707Z,0.00
2018-04-15T02:16:05.523Z,0.00
2018-04-15T02:17:37.340Z,0.00
2018-04-15T02:19:09.154Z,0.00
2018-04-15T02:20:40.969Z,0.00
2018-04-15T02:22:12.792Z,0.00
2018-04-15T02:23:44.906Z,0.00
2018-04-15T02:25:16.417Z,0.00
2018-04-15T02:26:48.432Z,0.00
2018-04-15T02:28:20.047Z,0.00
2018-04-15T02:29:51.861Z,0.00
2018-04-15T02:31:23.678Z,0.00
2018-04-15T02:32:55.495Z,0.00
2018-04-15T02:34:27.308Z,0.00
2018-04-15T02:35:59.123Z,0.00
2018-04-15T02:37:30.938Z,0.00
2018-04-15T02:39:02.756Z,0.00
2018-04-15T02:40:34.596Z,0.00
2018-04-15T02:42:06.388Z,0.00
2018-04-15T02:43:38.204Z,0.00
2018-04-15T02:45:10.115Z,0.00
2018-04-15T02:46:41.829Z,0.00
2018-04-15T02:48:13.644Z,0.00
2018-04-15T02:51:17.275Z,0.00
2018-04-15T02:52:49.089Z,0.00
2018-04-15T02:54:20.904Z,0.00
2018-04-15T02:55:52.719Z,0.00
2018-04-15T02:57:24.638Z,0.00
2018-04-15T02:58:56.351Z,0.00
2018-04-15T03:00:28.162Z,0.00
2018-04-15T03:01:59.988Z,0.00
2018-04-15T03:03:31.965Z,0.00
2018-04-15T03:05:03.677Z,0.00
2018-04-15T03:06:35.492Z,0.00
2018-04-15T03:08:07.306Z,0.00
2018-04-15T03:09:39.271Z,0.00
2018-04-15T03:11:10.869Z,0.00
2018-04-15T03:12:42.679Z,0.00
2018-04-15T03:14:14.496Z,0.00
2018-04-15T03:15:46.862Z,0.00
2018-04-15T03:17:18.121Z,0.00
2018-04-15T03:18:49.938Z,0.00
2018-04-15T03:20:21.797Z,0.00
2018-04-15T03:21:53.665Z,0.00
2018-04-15T03:23:25.380Z,0.00
2018-04-15T03:24:57.197Z,0.00
2018-04-15T03:26:29.011Z,0.00
2018-04-15T03:28:00.924Z,0.00
2018-04-15T03:29:32.637Z,0.00
2018-04-15T03:31:04.454Z,0.00
2018-04-15T03:32:36.268Z,0.00
2018-04-15T03:34:08.083Z,0.00
2018-04-15T03:35:39.897Z,0.00
2018-04-15T03:37:11.711Z,0.00
2018-04-15T03:38:43.526Z,0.00
2018-04-15T03:40:15.640Z,0.00
2018-04-15T03:41:47.158Z,0.00
2018-04-15T03:43:18.970Z,0.00
2018-04-15T03:44:50.785Z,0.00
2018-04-15T03:46:22.850Z,0.00
2018-04-15T03:47:54.414Z,0.00
2018-04-15T03:49:26.227Z,0.00
2018-04-15T03:50:58.044Z,0.00
2018-04-15T03:52:29.857Z,0.00
2018-04-15T03:54:01.672Z,0.00
2018-04-15T03:55:33.486Z,0.00
2018-04-15T03:57:05.301Z,0.00
2018-04-15T03:58:37.314Z,0.00
2018-04-15T04:01:40.742Z,0.00
2018-04-15T04:03:12.556Z,0.00
2018-04-15T04:04:44.368Z,0.00
2018-04-15T04:06:16.183Z,0.00
2018-04-15T04:09:19.811Z,0.00
2018-04-15T04:10:51.826Z,0.00
2018-04-15T04:12:23.438Z,0.00
2018-04-15T04:13:55.253Z,0.00
2018-04-15T04:15:27.067Z,0.00
2018-04-15T04:16:59.238Z,0.00
2018-04-15T04:18:30.695Z,0.00
2018-04-15T04:20:02.508Z,0.00
2018-04-15T04:21:34.326Z,0.00
2018-04-15T04:23:06.286Z,0.00
2018-04-15T04:24:37.950Z,0.00
2018-04-15T04:26:09.764Z,0.00
2018-04-15T04:27:41.579Z,0.00
2018-04-15T04:29:13.492Z,0.00
2018-04-15T04:30:45.206Z,0.00
2018-04-15T04:32:17.020Z,0.00
2018-04-15T04:33:48.833Z,0.00
2018-04-15T04:35:20.748Z,0.00
2018-04-15T04:36:52.466Z,0.00
2018-04-15T04:38:24.275Z,0.00
2018-04-15T04:39:56.090Z,0.00
2018-04-15T04:41:27.904Z,0.00
2018-04-15T04:42:59.718Z,0.00
2018-04-15T04:44:31.532Z,0.00
2018-04-15T04:46:03.347Z,0.00
2018-04-15T04:47:35.161Z,0.00
2018-04-15T04:49:06.975Z,0.00
2018-04-15T04:50:38.795Z,0.00
2018-04-15T04:52:10.603Z,0.00
2018-04-15T04:53:42.517Z,0.00
2018-04-15T04:55:14.232Z,0.00
2018-04-15T04:56:46.049Z,0.00
2018-04-15T04:58:17.864Z,0.00
2018-04-15T04:59:49.776Z,0.00
2018-04-15T05:01:21.489Z,0.00
2018-04-15T05:02:53.305Z,0.00
2018-04-15T05:04:25.118Z,0.00
2018-04-15T05:05:57.082Z,0.00
2018-04-15T05:07:28.746Z,0.00
2018-04-15T05:10:32.378Z,0.00
2018-04-15T05:12:04.289Z,0.00
2018-04-15T05:13:36.003Z,0.00
2018-04-15T05:15:07.817Z,0.00
2018-04-15T05:16:39.631Z,0.00
2018-04-15T05:18:11.696Z,0.00
2018-04-15T05:19:43.266Z,0.00
2018-04-15T05:21:15.076Z,0.00
2018-04-15T05:22:46.889Z,0.00
2018-04-15T05:24:18.704Z,0.00
2018-04-15T05:25:50.515Z,0.00
2018-04-15T05:27:22.329Z,0.00
2018-04-15T05:28:54.144Z,0.00
2018-04-15T05:30:26.159Z,0.00
2018-04-15T05:31:57.772Z,0.00
2018-04-15T05:33:29.586Z,0.00
2018-04-15T05:35:01.603Z,0.00
2018-04-15T05:36:33.215Z,0.00
2018-04-15T05:38:05.029Z,0.00
2018-04-15T05:39:36.843Z,0.00
2018-04-15T05:41:08.658Z,0.00
2018-04-15T05:42:40.473Z,0.00
2018-04-15T05:44:12.285Z,0.00
2018-04-15T05:45:44.130Z,0.00
2018-04-15T05:47:15.911Z,0.00
2018-04-15T05:48:47.825Z,0.00
2018-04-15T05:50:19.541Z,0.00
2018-04-15T05:51:51.353Z,0.00
2018-04-15T05:53:23.168Z,0.00
2018-04-15T05:54:54.979Z,0.00
2018-04-15T05:56:26.793Z,0.00
2018-04-15T05:57:58.606Z,0.00
2018-04-15T05:59:30.477Z,0.00
2018-04-15T06:01:02.536Z,0.00
2018-04-15T06:02:34.047Z,0.00
2018-04-15T06:04:05.860Z,0.00
2018-04-15T06:05:37.676Z,0.00
2018-04-15T06:07:09.588Z,0.00
2018-04-15T06:08:41.300Z,0.00
2018-04-15T06:10:13.114Z,0.00
2018-04-15T06:11:45.133Z,0.00
2018-04-15T06:13:16.741Z,0.00
2018-04-15T06:14:48.555Z,0.00
2018-04-15T06:16:20.371Z,0.00
2018-04-15T06:17:52.180Z,0.00
2018-04-15T06:19:23.996Z,0.00
2018-04-15T06:20:55.807Z,0.00
2018-04-15T06:22:27.621Z,0.00
2018-04-15T06:23:59.434Z,0.00
2018-04-15T06:25:31.348Z,0.00
2018-04-15T06:27:03.061Z,0.00
2018-04-15T06:28:34.872Z,0.00
2018-04-15T06:30:06.687Z,0.00
2018-04-15T06:31:38.601Z,0.00
2018-04-15T06:33:10.313Z,0.00
2018-04-15T06:34:42.126Z,0.00
2018-04-15T06:36:13.940Z,0.00
2018-04-15T06:37:45.753Z,0.00
2018-04-15T06:39:17.564Z,0.00
2018-04-15T06:40:49.380Z,0.00
2018-04-15T06:42:21.196Z,0.00
2018-04-15T06:43:53.206Z,0.00
2018-04-15T06:45:24.819Z,0.00
2018-04-15T06:46:56.631Z,0.00
2018-04-15T06:48:28.446Z,0.00
2018-04-15T06:50:00.509Z,0.00
2018-04-15T06:51:32.076Z,0.00
2018-04-15T06:53:03.885Z,0.00
2018-04-15T06:54:35.698Z,0.00
2018-04-15T06:56:07.511Z,0.00
2018-04-15T06:57:39.325Z,0.00
2018-04-15T06:59:11.138Z,0.00
2018-04-15T07:00:42.952Z,0.00
2018-04-15T07:02:14.980Z,0.00
2018-04-15T07:03:46.577Z,0.00
2018-04-15T07:05:18.390Z,0.00
2018-04-15T07:06:50.204Z,0.00
2018-04-15T07:08:22.021Z,0.00
2018-04-15T07:09:53.829Z,0.00
2018-04-15T07:11:25.643Z,0.00
2018-04-15T07:12:57.456Z,0.00
2018-04-15T07:14:29.423Z,0.00
2018-04-15T07:16:01.083Z,0.00
2018-04-15T07:17:32.900Z,0.00
2018-04-15T07:19:04.709Z,0.00
2018-04-15T07:20:36.873Z,0.00
2018-04-15T07:22:08.335Z,0.00
2018-04-15T07:23:40.154Z,0.00
2018-04-15T07:25:11.963Z,0.00
2018-04-15T07:26:43.775Z,0.00
2018-04-15T07:28:15.591Z,0.00
2018-04-15T07:29:47.705Z,0.00
2018-04-15T07:31:19.215Z,0.00
2018-04-15T07:32:51.131Z,0.00
2018-04-15T07:34:22.840Z,0.00
2018-04-15T07:35:54.654Z,0.00
2018-04-15T07:37:26.468Z,0.00
2018-04-15T07:38:58.379Z,0.00
2018-04-15T07:40:30.093Z,0.00
2018-04-15T07:42:01.907Z,0.00
2018-04-15T07:43:33.718Z,0.00
2018-04-15T07:45:05.682Z,0.00
2018-04-15T07:46:37.344Z,0.00
2018-04-15T07:48:09.157Z,0.00
2018-04-15T07:49:40.970Z,0.00
2018-04-15T07:51:13.033Z,0.00
2018-04-15T07:52:44.595Z,0.00
2018-04-15T07:54:16.413Z,0.00
2018-04-15T07:55:48.222Z,0.00
2018-04-15T07:57:20.136Z,0.00
2018-04-15T07:58:51.848Z,0.00
2018-04-15T08:00:23.660Z,0.00
2018-04-15T08:01:55.473Z,0.00
2018-04-15T08:03:27.388Z,0.00
2018-04-15T08:06:30.911Z,0.00
2018-04-15T08:08:02.723Z,0.00
2018-04-15T08:09:34.535Z,0.00
2018-04-15T08:11:06.349Z,0.00
2018-04-15T08:12:38.161Z,0.00
2018-04-15T08:14:09.974Z,0.00
2018-04-15T08:15:42.589Z,0.00
2018-04-15T08:17:13.632Z,0.00
2018-04-15T08:18:45.413Z,0.00
2018-04-15T08:20:17.229Z,0.00
2018-04-15T08:21:49.038Z,0.00
2018-04-15T08:23:20.851Z,0.00
2018-04-15T08:24:52.665Z,0.00
2018-04-15T08:26:24.478Z,0.00
2018-04-15T08:27:56.291Z,0.00
2018-04-15T08:29:28.103Z,0.00
2018-04-15T08:30:59.917Z,0.00
2018-04-15T08:32:31.730Z,0.00
2018-04-15T08:34:03.644Z,0.00
2018-04-15T08:35:35.354Z,0.00
2018-04-15T08:37:07.167Z,0.00
2018-04-15T08:38:38.980Z,0.00
2018-04-15T08:40:10.793Z,0.00
2018-04-15T08:41:42.607Z,0.00
2018-04-15T08:43:14.421Z,0.00
2018-04-15T08:44:46.232Z,0.00
2018-04-15T08:46:18.046Z,0.00
2018-04-15T08:47:49.858Z,0.00
2018-04-15T08:49:21.672Z,0.00
2018-04-15T08:50:53.483Z,0.00
2018-04-15T08:52:25.648Z,0.00
2018-04-15T08:53:57.109Z,0.00
2018-04-15T08:55:28.922Z,0.00
2018-04-15T08:57:00.735Z,0.00
2018-04-15T08:58:32.548Z,0.00
2018-04-15T09:00:04.361Z,0.00
2018-04-15T09:01:36.174Z,0.00
2018-04-15T09:03:07.987Z,4.00
2018-04-15T09:04:39.899Z,4.00
2018-04-15T09:06:11.614Z,4.00
2018-04-15T09:07:43.426Z,12.00
2018-04-15T09:09:15.238Z,16.00
2018-04-15T09:10:47.152Z,24.00
2018-04-15T09:12:18.864Z,32.00
2018-04-15T09:13:50.682Z,44.00
2018-04-15T09:15:22.490Z,60.00
2018-04-15T09:16:54.304Z,64.00
2018-04-15T09:18:26.115Z,72.00
2018-04-15T09:19:57.928Z,104.00
2018-04-15T09:21:29.750Z,124.00
2018-04-15T09:23:02.327Z,140.00
2018-04-15T09:25:40.838Z,156.00
2018-04-15T09:27:12.248Z,180.00
2018-04-15T09:28:44.161Z,216.00
2018-04-15T09:30:15.875Z,240.00
2018-04-15T09:33:19.504Z,356.00
2018-04-15T09:34:51.418Z,396.00
2018-04-15T09:36:23.130Z,412.00
2018-04-15T09:37:54.940Z,404.00
2018-04-15T09:39:26.757Z,380.00
2018-04-15T09:40:58.592Z,328.00
2018-04-15T09:42:30.382Z,324.00
2018-04-15T09:44:02.199Z,300.00
2018-04-15T09:45:34.009Z,364.00
2018-04-15T09:47:05.924Z,348.00
2018-04-15T09:48:37.637Z,508.00
2018-04-15T09:50:09.452Z,640.00
2018-04-15T09:51:41.264Z,988.00
2018-04-15T09:53:13.330Z,732.00
2018-04-15T09:54:44.893Z,840.00
2018-04-15T09:56:16.714Z,1848.00
2018-04-15T09:57:48.523Z,2804.00
2018-04-15T09:59:20.339Z,3288.00
2018-04-15T10:02:23.960Z,3712.00
2018-04-15T10:03:55.774Z,3728.00
2018-04-15T10:05:28.091Z,3952.00
2018-04-15T10:06:59.401Z,3820.00
2018-04-15T10:08:31.215Z,3448.00
2018-04-15T10:10:03.027Z,3112.00
2018-04-15T10:11:34.843Z,2968.00
2018-04-15T10:13:06.656Z,3452.00
2018-04-15T10:14:38.471Z,3788.00
2018-04-15T10:16:10.284Z,4188.00
2018-04-15T10:19:13.913Z,5476.00
2018-04-15T10:20:45.734Z,5936.00
2018-04-15T10:22:17.541Z,6284.00
2018-04-15T10:23:49.356Z,7412.00
2018-04-15T10:25:21.271Z,7416.00
2018-04-15T10:26:52.984Z,7676.00
2018-04-15T10:28:24.799Z,7324.00
2018-04-15T10:31:28.428Z,7496.00
2018-04-15T10:33:00.243Z,9052.00
2018-04-15T10:34:32.361Z,10340.00
2018-04-15T10:36:03.874Z,10492.00
2018-04-15T10:37:35.838Z,9196.00
2018-04-15T10:39:07.503Z,8480.00
2018-04-15T10:40:39.320Z,8944.00
2018-04-15T10:42:11.164Z,7896.00
2018-04-15T10:43:43.049Z,8020.00
2018-04-15T10:45:14.764Z,8568.00
2018-04-15T10:46:46.578Z,7800.00
2018-04-15T10:48:18.393Z,7120.00
2018-04-15T10:52:53.839Z,7492.00
2018-04-15T10:54:25.958Z,8920.00
2018-04-15T10:55:57.470Z,8336.00
2018-04-15T10:57:29.284Z,5488.00
2018-04-15T10:59:01.201Z,5548.00
2018-04-15T11:00:32.914Z,4316.00
2018-04-15T11:02:04.729Z,3708.00
2018-04-15T11:03:36.544Z,4788.00
2018-04-15T11:05:08.360Z,4184.00
2018-04-15T11:06:40.174Z,5584.00
2018-04-15T11:09:44.105Z,5548.00
2018-04-15T11:11:15.717Z,5588.00
2018-04-15T11:12:47.431Z,6484.00
2018-04-15T11:14:19.246Z,8748.00
2018-04-15T11:15:51.064Z,12120.00
2018-04-15T11:17:22.974Z,14292.00
2018-04-15T11:18:54.689Z,16004.00
2018-04-15T11:20:26.509Z,12812.00
2018-04-15T11:21:58.318Z,13364.00
2018-04-15T11:23:30.133Z,9204.00
2018-04-15T11:25:02.152Z,6968.00
2018-04-15T11:28:05.577Z,7360.00
2018-04-15T11:29:37.392Z,7776.00
2018-04-15T11:31:09.211Z,10820.00
2018-04-15T11:32:41.023Z,11764.00
2018-04-15T11:34:12.838Z,9796.00
2018-04-15T11:35:44.754Z,7796.00
2018-04-15T11:37:16.468Z,8420.00
2018-04-15T11:38:48.284Z,14816.00
2018-04-15T11:40:20.100Z,9944.00
2018-04-15T11:41:52.023Z,9144.00
2018-04-15T11:44:55.545Z,11720.00
2018-04-15T11:46:27.360Z,12196.00
2018-04-15T11:47:59.175Z,8164.00
2018-04-15T11:49:30.994Z,7264.00
2018-04-15T11:51:02.814Z,5712.00
2018-04-15T11:52:34.620Z,5640.00
2018-04-15T11:54:06.534Z,4508.00
2018-04-15T11:55:38.249Z,4828.00
2018-04-15T11:57:10.064Z,6116.00
2018-04-15T11:58:41.887Z,7056.00
2018-04-15T12:00:13.693Z,11140.00
2018-04-15T12:01:45.926Z,11100.00
2018-04-15T12:03:17.321Z,10720.00
2018-04-15T12:04:49.136Z,9900.00
2018-04-15T12:06:20.950Z,9584.00
2018-04-15T12:07:52.762Z,9584.00
2018-04-15T12:09:24.881Z,7388.00
2018-04-15T12:10:56.391Z,8012.00
2018-04-15T12:12:28.306Z,8712.00
2018-04-15T12:15:31.835Z,6592.00
2018-04-15T12:17:03.850Z,8208.00
2018-04-15T12:18:35.984Z,9852.00
2018-04-15T12:20:07.277Z,11264.00
2018-04-15T12:21:39.092Z,10064.00
2018-04-15T12:23:10.906Z,9620.00
2018-04-15T12:24:42.720Z,15444.00
2018-04-15T12:26:14.546Z,18240.00
2018-04-15T12:27:46.870Z,18752.00
2018-04-15T12:29:18.175Z,18336.00
2018-04-15T12:30:50.081Z,16588.00
2018-04-15T12:32:22.100Z,20064.00
2018-04-15T12:33:53.610Z,19424.00
2018-04-15T12:35:25.424Z,18912.00
2018-04-15T12:36:57.239Z,19488.00
2018-04-15T12:38:29.055Z,20352.00
2018-04-15T12:40:00.871Z,22944.00
2018-04-15T12:41:32.686Z,22240.00
2018-04-15T12:44:36.569Z,22976.00
2018-04-15T12:46:08.134Z,24064.00
2018-04-15T12:47:39.951Z,32832.00
2018-04-15T12:49:11.767Z,35968.00
2018-04-15T12:50:43.987Z,36704.00
2018-04-15T12:52:15.400Z,42240.00
2018-04-15T12:53:47.218Z,43808.00
2018-04-15T12:55:19.035Z,43104.00
2018-04-15T12:56:50.853Z,43872.00
2018-04-15T12:58:22.673Z,43680.00
2018-04-15T12:59:54.490Z,44576.00
2018-04-15T13:01:26.308Z,41632.00
2018-04-15T13:02:58.138Z,42816.00
2018-04-15T13:04:29.946Z,34752.00
2018-04-15T13:06:01.786Z,38752.00
2018-04-15T13:07:33.888Z,41440.00
2018-04-15T13:10:37.322Z,41344.00
2018-04-15T13:12:09.563Z,39712.00
2018-04-15T13:13:40.861Z,35360.00
2018-04-15T13:15:12.682Z,35328.00
2018-04-15T13:16:44.601Z,28576.00
2018-04-15T13:18:16.321Z,28800.00
2018-04-15T13:19:48.140Z,26080.00
2018-04-15T13:21:20.161Z,21376.00
2018-04-15T13:22:52.083Z,17888.00
2018-04-15T13:24:23.909Z,11580.00
2018-04-15T13:25:55.417Z,12372.00
2018-04-15T13:27:27.235Z,13320.00
2018-04-15T13:28:59.154Z,10760.00
2018-04-15T13:30:30.871Z,8640.00
2018-04-15T13:32:02.689Z,9380.00
2018-04-15T13:33:34.514Z,7428.00
2018-04-15T13:36:38.141Z,6916.00
2018-04-15T13:38:09.958Z,10848.00
2018-04-15T13:41:13.589Z,16912.00
2018-04-15T13:42:45.926Z,18464.00
2018-04-15T13:44:17.222Z,18752.00
2018-04-15T13:48:53.071Z,15468.00
2018-04-15T13:51:56.298Z,14540.00
2018-04-15T13:53:28.114Z,13304.00
2018-04-15T13:54:59.929Z,11332.00
2018-04-15T13:58:03.565Z,7300.00
2018-04-15T13:59:35.375Z,6092.00
2018-04-15T14:01:07.911Z,6480.00
2018-04-15T14:02:39.007Z,6792.00
2018-04-15T14:04:10.819Z,6616.00
2018-04-15T14:05:42.687Z,6856.00
2018-04-15T14:07:14.549Z,9024.00
2018-04-15T14:08:46.265Z,10268.00
2018-04-15T14:13:21.908Z,7436.00
2018-04-15T14:14:53.823Z,6476.00
2018-04-15T14:16:25.334Z,7556.00
2018-04-15T14:17:57.148Z,8488.00
2018-04-15T14:19:29.062Z,10556.00
2018-04-15T14:22:32.591Z,10304.00
2018-04-15T14:24:04.404Z,10196.00
2018-04-15T14:25:36.318Z,10000.00
2018-04-15T14:27:08.032Z,10100.00
2018-04-15T14:28:40.149Z,10064.00
2018-04-15T14:30:11.659Z,9304.00
2018-04-15T14:31:43.993Z,8548.00
2018-04-15T14:33:16.015Z,10196.00
2018-04-15T14:34:47.107Z,10588.00
2018-04-15T14:36:18.918Z,11348.00
2018-04-15T14:39:22.540Z,12132.00
2018-04-15T14:40:54.555Z,12080.00
2018-04-15T14:43:58.182Z,11804.00
2018-04-15T14:47:01.913Z,12196.00
2018-04-15T14:48:33.423Z,11640.00
2018-04-15T14:50:05.254Z,11408.00
2018-04-15T14:51:37.048Z,12160.00
2018-04-15T14:54:40.675Z,11056.00
2018-04-15T14:56:12.492Z,11352.00
2018-04-15T14:57:44.305Z,11460.00
2018-04-15T15:00:47.931Z,12556.00
2018-04-15T15:03:51.762Z,13220.00
2018-04-15T15:05:23.373Z,13700.00
2018-04-15T15:06:55.287Z,13260.00
2018-04-15T15:08:27.001Z,12632.00
2018-04-15T15:11:30.628Z,10972.00
2018-04-15T15:13:02.445Z,11716.00
2018-04-15T15:14:34.258Z,11092.00
2018-04-15T15:17:37.888Z,11312.00
2018-04-15T15:20:42.439Z,9600.00
2018-04-15T15:22:13.327Z,9728.00
2018-04-15T15:23:45.141Z,10148.00
2018-04-15T15:25:16.956Z,12528.00
2018-04-15T15:26:48.870Z,12624.00
2018-04-15T15:31:24.212Z,16520.00
2018-04-15T15:34:27.840Z,14228.00
2018-04-15T15:35:59.856Z,16200.00
2018-04-15T15:37:31.991Z,16152.00
2018-04-15T15:39:03.286Z,13760.00
2018-04-15T15:40:35.097Z,14816.00
2018-04-15T15:42:06.953Z,14984.00
2018-04-15T15:43:38.727Z,16376.00
2018-04-15T15:45:10.743Z,18848.00
2018-04-15T15:46:42.456Z,19328.00
2018-04-15T15:48:14.172Z,19712.00
2018-04-15T15:49:46.186Z,19040.00
2018-04-15T15:51:18.102Z,19168.00
2018-04-15T15:52:49.815Z,18560.00
2018-04-15T15:54:21.734Z,17520.00
2018-04-15T15:55:53.244Z,19136.00
2018-04-15T15:57:25.058Z,19840.00
2018-04-15T15:58:56.871Z,20544.00
2018-04-15T16:00:28.686Z,20480.00
2018-04-15T16:02:00.501Z,19648.00
2018-04-15T16:03:32.619Z,21248.00
2018-04-15T16:05:04.433Z,22368.00
2018-04-15T16:06:36.150Z,22208.00
2018-04-15T16:09:39.574Z,18144.00
2018-04-15T16:11:11.393Z,17952.00
2018-04-15T16:12:43.206Z,17388.00
2018-04-15T16:14:15.020Z,14320.00
2018-04-15T16:15:46.834Z,19744.00
2018-04-15T16:18:50.465Z,23776.00
2018-04-15T16:20:22.280Z,23168.00
2018-04-15T16:23:25.911Z,26080.00
2018-04-15T16:26:29.845Z,29056.00
2018-04-15T16:28:01.358Z,23776.00
2018-04-15T16:29:33.173Z,22944.00
2018-04-15T16:31:04.991Z,22592.00
2018-04-15T16:32:36.805Z,26272.00
2018-04-15T16:35:40.438Z,20224.00
2018-04-15T16:40:16.034Z,20672.00
2018-04-15T16:43:19.514Z,19360.00
2018-04-15T16:44:51.330Z,28000.00
2018-04-15T16:46:23.251Z,25472.00
2018-04-15T16:47:55.385Z,20576.00
2018-04-15T16:49:26.776Z,23872.00
2018-04-15T16:50:58.591Z,28000.00
2018-04-15T16:52:30.407Z,34368.00
2018-04-15T16:55:34.039Z,30016.00
2018-04-15T16:57:05.888Z,28864.00
2018-04-15T16:58:37.874Z,21728.00
2018-04-15T17:00:10.070Z,23360.00
2018-04-15T17:01:41.505Z,20576.00
2018-04-15T17:03:13.119Z,25568.00
2018-04-15T17:04:45.285Z,25728.00
2018-04-15T17:06:16.751Z,25056.00
2018-04-15T17:07:48.567Z,25568.00
2018-04-15T17:09:20.386Z,24224.00
2018-04-15T17:12:24.317Z,30336.00
2018-04-15T17:13:55.835Z,36288.00
2018-04-15T17:15:27.850Z,40736.00
2018-04-15T17:16:59.772Z,39168.00
2018-04-15T17:18:31.281Z,34688.00
2018-04-15T17:20:03.098Z,34176.00
2018-04-15T17:21:34.915Z,29856.00
2018-04-15T17:23:06.933Z,35968.00
2018-04-15T17:24:38.853Z,35168.00
2018-04-15T17:26:10.382Z,35072.00
2018-04-15T17:29:14.000Z,30688.00
2018-04-15T17:30:46.122Z,27392.00
2018-04-15T17:32:17.837Z,26144.00
2018-04-15T17:33:49.466Z,22528.00
2018-04-15T17:35:21.270Z,16648.00
2018-04-15T17:36:53.188Z,17792.00
2018-04-15T17:38:24.954Z,20960.00
2018-04-15T17:39:56.728Z,23232.00
2018-04-15T17:41:28.541Z,20096.00
2018-04-15T17:43:00.456Z,18816.00
2018-04-15T17:46:03.988Z,20864.00
2018-04-15T17:47:35.805Z,18720.00
2018-04-15T17:49:07.622Z,17312.00
2018-04-15T17:50:39.741Z,12156.00
2018-04-15T17:52:11.253Z,17356.00
2018-04-15T17:53:43.074Z,14768.00
2018-04-15T17:55:14.907Z,12444.00
2018-04-15T17:56:46.701Z,15456.00
2018-04-15T17:58:18.520Z,12728.00
2018-04-15T17:59:50.535Z,12292.00
2018-04-15T18:02:54.064Z,10392.00
2018-04-15T18:04:26.082Z,11220.00
2018-04-15T18:05:57.594Z,12104.00
2018-04-15T18:07:29.712Z,15716.00
2018-04-15T18:10:33.039Z,16860.00
2018-04-15T18:13:36.668Z,17140.00
2018-04-15T18:15:08.687Z,16440.00
2018-04-15T18:16:40.298Z,15488.00
2018-04-15T18:18:12.112Z,9344.00
2018-04-15T18:19:44.231Z,7184.00
2018-04-15T18:21:15.741Z,4332.00
2018-04-15T18:22:47.960Z,2960.00
2018-04-15T18:24:19.402Z,1752.00
2018-04-15T18:25:51.184Z,1556.00
2018-04-15T18:27:23.031Z,3780.00
2018-04-15T18:28:54.813Z,4852.00
2018-04-15T18:30:26.626Z,6884.00
2018-04-15T18:31:58.442Z,9748.00
2018-04-15T18:35:02.371Z,13200.00
2018-04-15T18:36:33.883Z,12552.00
2018-04-15T18:39:37.512Z,10724.00
2018-04-15T18:41:09.523Z,10180.00
2018-04-15T18:42:41.136Z,9640.00
2018-04-15T18:44:12.952Z,10172.00
2018-04-15T18:45:44.768Z,10888.00
2018-04-15T18:47:16.577Z,11656.00
2018-04-15T18:48:48.394Z,11796.00
2018-04-15T18:50:20.306Z,11244.00
2018-04-15T18:51:52.323Z,10532.00
2018-04-15T18:53:23.833Z,10948.00
2018-04-15T18:54:55.848Z,10864.00
2018-04-15T18:56:27.771Z,10584.00
2018-04-15T18:57:59.274Z,9620.00
2018-04-15T18:59:31.188Z,9412.00
2018-04-15T19:01:03.103Z,9868.00
2018-04-15T19:02:34.719Z,9888.00
2018-04-15T19:04:06.530Z,8820.00
2018-04-15T19:05:38.342Z,7888.00
2018-04-15T19:08:42.172Z,7928.00
2018-04-15T19:10:14.088Z,6656.00
2018-04-15T19:11:46.003Z,7764.00
2018-04-15T19:13:17.716Z,7992.00
2018-04-15T19:14:49.223Z,7416.00
2018-04-15T19:16:21.038Z,7512.00
2018-04-15T19:17:53.474Z,8736.00
2018-04-15T19:19:24.666Z,9148.00
2018-04-15T19:20:56.479Z,9084.00
2018-04-15T19:22:28.293Z,8920.00
2018-04-15T19:24:00.108Z,9192.00
2018-04-15T19:25:31.920Z,8956.00
2018-04-15T19:28:35.546Z,8560.00
2018-04-15T19:30:07.361Z,7436.00
2018-04-15T19:31:39.175Z,7304.00
2018-04-15T19:33:10.988Z,6844.00
2018-04-15T19:34:42.801Z,5540.00
2018-04-15T19:36:14.715Z,2960.00
2018-04-15T19:37:46.431Z,2860.00
2018-04-15T19:39:18.242Z,3120.00
2018-04-15T19:42:22.171Z,2596.00
2018-04-15T19:45:25.497Z,1372.00
2018-04-15T19:46:57.309Z,1788.00
2018-04-15T19:48:29.123Z,2352.00
2018-04-15T19:50:00.935Z,2780.00
2018-04-15T19:51:32.749Z,2500.00
2018-04-15T19:53:04.764Z,2232.00
2018-04-15T19:54:36.475Z,2228.00
2018-04-15T19:56:08.189Z,2280.00
2018-04-15T19:59:11.815Z,2684.00
2018-04-15T20:02:15.746Z,2844.00
2018-04-15T20:05:19.077Z,3676.00
2018-04-15T20:06:50.885Z,4064.00
2018-04-15T20:08:22.756Z,3616.00
2018-04-15T20:09:54.507Z,3064.00
2018-04-15T20:11:26.337Z,2620.00
2018-04-15T20:12:58.335Z,2048.00
2018-04-15T20:14:30.200Z,1408.00
2018-04-15T20:16:02.067Z,1320.00
2018-04-15T20:17:33.577Z,1244.00
2018-04-15T20:19:05.387Z,904.00
2018-04-15T20:20:37.200Z,724.00
2018-04-15T20:22:09.014Z,692.00
2018-04-15T20:23:40.826Z,680.00
2018-04-15T20:25:12.640Z,512.00
2018-04-15T20:26:44.454Z,520.00
2018-04-15T20:28:16.267Z,524.00
2018-04-15T20:29:48.081Z,604.00
2018-04-15T20:31:19.895Z,792.00
2018-04-15T20:32:52.415Z,692.00
2018-04-15T20:34:23.520Z,928.00
2018-04-15T20:35:55.335Z,500.00
2018-04-15T20:37:27.148Z,1124.00
2018-04-15T20:38:59.884Z,1044.00
2018-04-15T20:40:30.772Z,788.00
2018-04-15T20:42:02.587Z,592.00
2018-04-15T20:43:34.399Z,392.00
2018-04-15T20:45:06.314Z,320.00
2018-04-15T20:46:38.025Z,384.00
2018-04-15T20:48:09.839Z,264.00
2018-04-15T20:51:13.779Z,276.00